createdAt,value
2023-01-23T00:00:00.921Z,0
2023-01-23T00:01:10.083Z,0
2023-01-23T00:02:19.247Z,0
2023-01-23T00:03:27.491Z,0
2023-01-23T00:04:35.763Z,0
2023-01-23T00:05:44.809Z,0
2023-01-23T00:06:53.976Z,0
2023-01-23T00:08:02.244Z,0
2023-01-23T00:09:10.425Z,0
2023-01-23T00:10:19.538Z,0
2023-01-23T00:11:28.719Z,0
2023-01-23T00:12:37.888Z,0
2023-01-23T00:13:47.057Z,0
2023-01-23T00:14:56.281Z,0
2023-01-23T00:16:05.409Z,0
2023-01-23T00:17:14.604Z,0
2023-01-23T00:18:23.762Z,0
2023-01-23T00:19:32.978Z,0
2023-01-23T00:20:42.160Z,0
2023-01-23T00:21:51.256Z,0
2023-01-23T00:23:00.449Z,0
2023-01-23T00:24:08.714Z,0
2023-01-23T00:25:17.864Z,0
2023-01-23T00:26:27.003Z,0
2023-01-23T00:27:36.220Z,0
2023-01-23T00:28:45.318Z,0
2023-01-23T00:29:54.498Z,0
2023-01-23T00:31:03.666Z,0
2023-01-23T00:32:11.896Z,0
2023-01-23T00:33:20.060Z,0
2023-01-23T00:34:28.254Z,0
2023-01-23T00:35:36.432Z,0
2023-01-23T00:36:45.631Z,0
2023-01-23T00:37:54.961Z,0
2023-01-23T00:39:03.964Z,0
2023-01-23T00:40:13.116Z,0
2023-01-23T00:41:22.301Z,0
2023-01-23T00:42:31.476Z,0
2023-01-23T00:43:40.651Z,0
2023-01-23T00:44:49.862Z,0
2023-01-23T00:45:59.042Z,0
2023-01-23T00:47:08.175Z,0
2023-01-23T00:48:17.330Z,0
2023-01-23T00:49:26.525Z,0
2023-01-23T00:50:34.706Z,0
2023-01-23T00:51:43.926Z,0
2023-01-23T00:52:53.039Z,0
2023-01-23T00:54:02.254Z,0
2023-01-23T00:55:11.385Z,0
2023-01-23T00:56:20.608Z,0
2023-01-23T00:57:29.732Z,0
2023-01-23T00:58:37.926Z,0
2023-01-23T00:59:46.115Z,0
2023-01-23T01:00:55.295Z,0
2023-01-23T01:02:03.491Z,0
2023-01-23T01:03:11.733Z,0
2023-01-23T01:04:20.847Z,0
2023-01-23T01:05:30.023Z,0
2023-01-23T01:06:39.195Z,0
2023-01-23T01:07:48.418Z,0
2023-01-23T01:08:57.542Z,0
2023-01-23T01:10:06.753Z,0
2023-01-23T01:11:16.016Z,0
2023-01-23T01:12:25.067Z,0
2023-01-23T01:13:34.241Z,0
2023-01-23T01:14:43.451Z,0
2023-01-23T01:15:52.576Z,0
2023-01-23T01:17:01.769Z,0
2023-01-23T01:18:10.925Z,0
2023-01-23T01:19:19.112Z,0
2023-01-23T01:20:28.344Z,0
2023-01-23T01:21:37.456Z,0
2023-01-23T01:22:46.632Z,0
2023-01-23T01:23:55.826Z,0
2023-01-23T01:25:04.984Z,0
2023-01-23T01:26:13.177Z,0
2023-01-23T01:27:21.362Z,0
2023-01-23T01:28:29.566Z,0
2023-01-23T01:29:37.821Z,0
2023-01-23T01:30:46.950Z,0
2023-01-23T01:31:56.106Z,0
2023-01-23T01:33:05.267Z,0
2023-01-23T01:34:14.434Z,0
2023-01-23T01:35:23.611Z,0
2023-01-23T01:36:32.782Z,0
2023-01-23T01:37:42.028Z,0
2023-01-23T01:38:51.200Z,0
2023-01-23T01:40:00.315Z,0
2023-01-23T01:41:09.489Z,0
2023-01-23T01:42:18.641Z,0
2023-01-23T01:43:27.874Z,0
2023-01-23T01:44:36.013Z,0
2023-01-23T01:45:45.192Z,0
2023-01-23T01:46:54.405Z,0
2023-01-23T01:48:03.559Z,0
2023-01-23T01:49:12.724Z,0
2023-01-23T01:50:21.899Z,0
2023-01-23T01:51:31.055Z,0
2023-01-23T01:52:39.259Z,0
2023-01-23T01:53:47.501Z,0
2023-01-23T01:54:56.608Z,0
2023-01-23T01:56:04.791Z,0
2023-01-23T01:57:12.992Z,0
2023-01-23T01:58:22.192Z,0
2023-01-23T01:59:31.340Z,0
2023-01-23T02:00:40.509Z,0
2023-01-23T02:01:49.682Z,0
2023-01-23T02:02:58.860Z,0
2023-01-23T02:04:08.023Z,0
2023-01-23T02:05:17.400Z,0
2023-01-23T02:06:26.377Z,0
2023-01-23T02:07:35.544Z,0
2023-01-23T02:08:44.726Z,0
2023-01-23T02:09:53.905Z,0
2023-01-23T02:11:03.118Z,0
2023-01-23T02:12:11.356Z,0
2023-01-23T02:13:20.426Z,0
2023-01-23T02:14:29.606Z,0
2023-01-23T02:15:38.803Z,0
2023-01-23T02:16:47.949Z,0
2023-01-23T02:17:57.127Z,0
2023-01-23T02:19:06.400Z,0
2023-01-23T02:20:14.493Z,0
2023-01-23T02:21:22.686Z,0
2023-01-23T02:22:30.862Z,0
2023-01-23T02:23:40.033Z,0
2023-01-23T02:24:48.279Z,0
2023-01-23T02:25:57.402Z,0
2023-01-23T02:27:06.588Z,0
2023-01-23T02:28:15.747Z,0
2023-01-23T02:29:24.917Z,0
2023-01-23T02:30:34.156Z,0
2023-01-23T02:31:43.267Z,0
2023-01-23T02:32:52.431Z,0
2023-01-23T02:34:01.608Z,0
2023-01-23T02:35:10.828Z,0
2023-01-23T02:36:20.011Z,0
2023-01-23T02:37:29.129Z,0
2023-01-23T02:38:38.339Z,0
2023-01-23T02:39:46.485Z,0
2023-01-23T02:40:55.747Z,0
2023-01-23T02:42:04.899Z,0
2023-01-23T02:43:14.019Z,0
2023-01-23T02:44:23.198Z,0
2023-01-23T02:45:32.347Z,0
2023-01-23T02:46:40.583Z,0
2023-01-23T02:47:48.744Z,0
2023-01-23T02:48:58.078Z,0
2023-01-23T02:50:06.118Z,0
2023-01-23T02:51:14.286Z,0
2023-01-23T02:52:23.498Z,0
2023-01-23T02:53:32.660Z,0
2023-01-23T02:54:41.821Z,0
2023-01-23T02:55:51.005Z,0
2023-01-23T02:57:00.166Z,0
2023-01-23T02:58:09.343Z,0
2023-01-23T02:59:18.518Z,0
2023-01-23T03:00:27.681Z,0
2023-01-23T03:01:36.847Z,0
2023-01-23T03:02:46.053Z,0
2023-01-23T03:03:55.203Z,0
2023-01-23T03:05:04.372Z,0
2023-01-23T03:06:12.549Z,0
2023-01-23T03:07:21.748Z,0
2023-01-23T03:08:30.899Z,0
2023-01-23T03:09:40.120Z,0
2023-01-23T03:10:48.280Z,0
2023-01-23T03:11:57.499Z,0
2023-01-23T03:13:06.626Z,0
2023-01-23T03:14:14.812Z,0
2023-01-23T03:15:23.000Z,0
2023-01-23T03:16:31.194Z,0
2023-01-23T03:17:39.389Z,0
2023-01-23T03:18:48.568Z,0
2023-01-23T03:19:57.719Z,0
2023-01-23T03:21:06.901Z,0
2023-01-23T03:22:16.071Z,0
2023-01-23T03:23:25.250Z,0
2023-01-23T03:24:34.416Z,0
2023-01-23T03:25:43.612Z,0
2023-01-23T03:26:52.809Z,0
2023-01-23T03:28:01.954Z,0
2023-01-23T03:29:11.110Z,0
2023-01-23T03:30:20.297Z,0
2023-01-23T03:31:29.469Z,0
2023-01-23T03:32:37.646Z,0
2023-01-23T03:34:55.997Z,0
2023-01-23T03:36:05.243Z,0
2023-01-23T03:37:14.330Z,0
2023-01-23T03:38:23.498Z,0
2023-01-23T03:39:32.677Z,0
2023-01-23T03:40:41.849Z,0
2023-01-23T03:41:50.086Z,0
2023-01-23T03:42:58.239Z,0
2023-01-23T03:44:07.405Z,0
2023-01-23T03:45:15.614Z,0
2023-01-23T03:46:23.784Z,0
2023-01-23T03:47:32.967Z,0
2023-01-23T03:48:42.145Z,0
2023-01-23T03:49:51.350Z,0
2023-01-23T03:51:00.491Z,0
2023-01-23T03:52:09.704Z,0
2023-01-23T03:53:18.838Z,0
2023-01-23T03:54:28.009Z,0
2023-01-23T03:55:37.168Z,0
2023-01-23T03:56:46.353Z,0
2023-01-23T03:57:55.578Z,0
2023-01-23T03:59:04.700Z,0
2023-01-23T04:00:13.862Z,0
2023-01-23T04:01:22.072Z,0
2023-01-23T04:02:31.232Z,0
2023-01-23T04:03:40.401Z,0
2023-01-23T04:04:49.663Z,0
2023-01-23T04:05:58.750Z,0
2023-01-23T04:07:07.923Z,0
2023-01-23T04:08:17.108Z,0
2023-01-23T04:09:25.293Z,0
2023-01-23T04:10:33.476Z,0
2023-01-23T04:11:42.655Z,0
2023-01-23T04:12:50.898Z,0
2023-01-23T04:13:59.123Z,0
2023-01-23T04:15:08.211Z,0
2023-01-23T04:16:16.414Z,0
2023-01-23T04:17:24.598Z,0
2023-01-23T04:18:33.762Z,0
2023-01-23T04:19:42.942Z,0
2023-01-23T04:20:52.139Z,0
2023-01-23T04:22:01.331Z,0
2023-01-23T04:23:10.466Z,0
2023-01-23T04:24:19.661Z,0
2023-01-23T04:25:28.799Z,0
2023-01-23T04:26:37.963Z,0
2023-01-23T04:27:47.145Z,0
2023-01-23T04:28:56.321Z,0
2023-01-23T04:30:05.488Z,0
2023-01-23T04:31:14.668Z,0
2023-01-23T04:32:22.851Z,0
2023-01-23T04:33:32.196Z,0
2023-01-23T04:34:41.206Z,0
2023-01-23T04:35:50.382Z,0
2023-01-23T04:36:59.549Z,0
2023-01-23T04:38:08.714Z,0
2023-01-23T04:39:17.901Z,0
2023-01-23T04:40:26.117Z,0
2023-01-23T04:41:34.270Z,0
2023-01-23T04:42:42.473Z,0
2023-01-23T04:43:50.666Z,0
2023-01-23T04:44:59.843Z,0
2023-01-23T04:46:09.011Z,0
2023-01-23T04:47:18.175Z,0
2023-01-23T04:48:27.368Z,0
2023-01-23T04:49:36.581Z,0
2023-01-23T04:50:45.705Z,0
2023-01-23T04:51:54.876Z,0
2023-01-23T04:53:04.126Z,0
2023-01-23T04:54:13.214Z,0
2023-01-23T04:55:22.427Z,0
2023-01-23T04:56:31.564Z,0
2023-01-23T04:57:40.740Z,0
2023-01-23T04:58:48.944Z,0
2023-01-23T04:59:58.109Z,0
2023-01-23T05:01:07.282Z,0
2023-01-23T05:02:16.469Z,0
2023-01-23T05:03:25.623Z,0
2023-01-23T05:04:34.820Z,0
2023-01-23T05:05:43.962Z,0
2023-01-23T05:06:52.159Z,0
2023-01-23T05:08:00.349Z,0
2023-01-23T05:09:08.543Z,0
2023-01-23T05:10:16.726Z,0
2023-01-23T05:11:25.904Z,0
2023-01-23T05:12:35.064Z,0
2023-01-23T05:13:44.291Z,0
2023-01-23T05:14:53.420Z,0
2023-01-23T05:16:02.640Z,0
2023-01-23T05:17:11.794Z,0
2023-01-23T05:18:20.949Z,0
2023-01-23T05:19:30.115Z,0
2023-01-23T05:20:39.304Z,0
2023-01-23T05:21:48.458Z,0
2023-01-23T05:22:57.623Z,0
2023-01-23T05:24:06.818Z,0
2023-01-23T05:25:14.999Z,0
2023-01-23T05:26:24.177Z,0
2023-01-23T05:27:33.381Z,0
2023-01-23T05:28:42.564Z,0
2023-01-23T05:29:51.689Z,0
2023-01-23T05:31:00.859Z,0
2023-01-23T05:32:10.024Z,0
2023-01-23T05:33:18.230Z,0
2023-01-23T05:34:26.419Z,0
2023-01-23T05:35:34.659Z,0
2023-01-23T05:36:42.813Z,0
2023-01-23T05:37:51.974Z,0
2023-01-23T05:39:01.150Z,0
2023-01-23T05:40:10.304Z,0
2023-01-23T05:41:19.488Z,0
2023-01-23T05:42:28.661Z,0
2023-01-23T05:43:37.852Z,0
2023-01-23T05:44:47.012Z,0
2023-01-23T05:45:56.189Z,0
2023-01-23T05:47:05.362Z,0
2023-01-23T05:48:14.537Z,0
2023-01-23T05:49:23.706Z,0
2023-01-23T05:50:32.880Z,0
2023-01-23T05:51:41.064Z,0
2023-01-23T05:52:50.240Z,0
2023-01-23T05:53:59.405Z,0
2023-01-23T05:55:08.600Z,0
2023-01-23T05:56:17.756Z,0
2023-01-23T05:57:26.923Z,0
2023-01-23T05:58:36.108Z,0
2023-01-23T05:59:44.294Z,0
2023-01-23T06:00:52.512Z,0
2023-01-23T06:02:01.663Z,0
2023-01-23T06:03:10.948Z,0
2023-01-23T06:04:20.096Z,0
2023-01-23T06:05:29.182Z,0
2023-01-23T06:06:38.363Z,0
2023-01-23T06:07:47.526Z,0
2023-01-23T06:08:56.699Z,0
2023-01-23T06:10:05.872Z,0
2023-01-23T06:11:15.082Z,0
2023-01-23T06:12:24.238Z,0
2023-01-23T06:13:33.384Z,0
2023-01-23T06:14:42.581Z,0
2023-01-23T06:15:50.747Z,0
2023-01-23T06:16:59.925Z,0
2023-01-23T06:18:09.150Z,0
2023-01-23T06:19:18.332Z,0
2023-01-23T06:20:27.453Z,0
2023-01-23T06:21:36.604Z,0
2023-01-23T06:22:45.837Z,0
2023-01-23T06:23:54.083Z,0
2023-01-23T06:25:02.172Z,0
2023-01-23T06:26:11.386Z,0
2023-01-23T06:27:20.510Z,3
2023-01-23T06:28:29.691Z,0
2023-01-23T06:29:38.862Z,0
2023-01-23T06:30:48.075Z,0
2023-01-23T06:31:57.204Z,0
2023-01-23T06:33:06.378Z,0
2023-01-23T06:34:15.606Z,0
2023-01-23T06:35:24.733Z,0
2023-01-23T06:36:33.911Z,3
2023-01-23T06:37:43.097Z,0
2023-01-23T06:38:52.253Z,0
2023-01-23T06:40:00.471Z,0
2023-01-23T06:41:09.606Z,0
2023-01-23T06:42:18.780Z,0
2023-01-23T06:43:27.962Z,0
2023-01-23T06:44:37.130Z,0
2023-01-23T06:45:46.315Z,0
2023-01-23T06:46:55.473Z,0
2023-01-23T06:48:03.670Z,0
2023-01-23T06:49:11.943Z,3
2023-01-23T06:50:20.060Z,3
2023-01-23T06:51:28.240Z,3
2023-01-23T06:52:36.440Z,3
2023-01-23T06:53:44.631Z,3
2023-01-23T06:54:53.839Z,3
2023-01-23T06:56:02.973Z,4
2023-01-23T06:57:12.255Z,0
2023-01-23T06:58:21.393Z,4
2023-01-23T06:59:30.497Z,4
2023-01-23T07:00:39.689Z,9
2023-01-23T07:01:48.003Z,1
2023-01-23T07:02:57.032Z,9
2023-01-23T07:04:06.249Z,13
2023-01-23T07:05:15.381Z,5
2023-01-23T07:06:24.561Z,10
2023-01-23T07:07:33.717Z,14
2023-01-23T07:08:42.901Z,10
2023-01-23T07:09:52.114Z,10
2023-01-23T07:11:01.255Z,19
2023-01-23T07:12:10.537Z,28
2023-01-23T07:13:19.586Z,24
2023-01-23T07:14:28.771Z,21
2023-01-23T07:15:37.968Z,12
2023-01-23T07:16:46.137Z,39
2023-01-23T07:17:54.319Z,47
2023-01-23T07:19:02.576Z,65
2023-01-23T07:20:10.774Z,65
2023-01-23T07:21:19.875Z,65
2023-01-23T07:22:29.040Z,73
2023-01-23T07:23:38.330Z,56
2023-01-23T07:24:47.405Z,56
2023-01-23T07:25:56.613Z,56
2023-01-23T07:27:05.808Z,73
2023-01-23T07:28:14.919Z,70
2023-01-23T07:29:24.183Z,62
2023-01-23T07:30:33.377Z,64
2023-01-23T07:31:42.447Z,51
2023-01-23T07:32:51.608Z,85
2023-01-23T07:34:00.837Z,99
2023-01-23T07:35:08.957Z,116
2023-01-23T07:36:18.177Z,137
2023-01-23T07:37:27.362Z,126
2023-01-23T07:38:36.482Z,131
2023-01-23T07:39:45.659Z,145
2023-01-23T07:40:54.829Z,143
2023-01-23T07:42:04.127Z,170
2023-01-23T07:43:12.205Z,175
2023-01-23T07:44:20.378Z,212
2023-01-23T07:45:28.598Z,273
2023-01-23T07:46:36.770Z,278
2023-01-23T07:47:46.032Z,276
2023-01-23T07:48:55.121Z,287
2023-01-23T07:50:04.286Z,337
2023-01-23T07:51:13.462Z,321
2023-01-23T07:52:22.659Z,360
2023-01-23T07:53:31.814Z,366
2023-01-23T07:54:40.983Z,367
2023-01-23T07:55:50.152Z,370
2023-01-23T07:56:59.329Z,439
2023-01-23T07:58:08.547Z,444
2023-01-23T07:59:17.671Z,456
2023-01-23T08:00:26.971Z,476
2023-01-23T08:01:35.049Z,479
2023-01-23T08:02:44.211Z,463
2023-01-23T08:03:53.447Z,494
2023-01-23T08:05:02.755Z,549
2023-01-23T08:06:11.742Z,641
2023-01-23T08:07:20.897Z,734
2023-01-23T08:08:30.097Z,724
2023-01-23T08:09:38.268Z,682
2023-01-23T08:10:46.534Z,567
2023-01-23T08:11:55.746Z,618
2023-01-23T08:13:04.965Z,798
2023-01-23T08:14:13.002Z,876
2023-01-23T08:15:21.223Z,894
2023-01-23T08:16:30.491Z,962
2023-01-23T08:17:39.532Z,1109
2023-01-23T08:18:48.704Z,1110
2023-01-23T08:19:57.960Z,1059
2023-01-23T08:21:07.045Z,1131
2023-01-23T08:22:16.305Z,1086
2023-01-23T08:23:25.471Z,964
2023-01-23T08:24:34.655Z,931
2023-01-23T08:25:43.794Z,963
2023-01-23T08:26:52.913Z,1121
2023-01-23T08:28:02.165Z,1122
2023-01-23T08:29:11.264Z,1163
2023-01-23T08:30:19.514Z,1054
2023-01-23T08:31:28.649Z,971
2023-01-23T08:32:37.789Z,1045
2023-01-23T08:33:46.983Z,1064
2023-01-23T08:34:56.134Z,932
2023-01-23T08:36:05.380Z,1092
2023-01-23T08:37:14.512Z,991
2023-01-23T08:38:23.662Z,878
2023-01-23T08:39:32.942Z,1020
2023-01-23T08:40:41.077Z,937
2023-01-23T08:41:49.343Z,818
2023-01-23T08:42:58.419Z,858
2023-01-23T08:44:06.597Z,831
2023-01-23T08:45:14.808Z,716
2023-01-23T08:46:23.968Z,684
2023-01-23T08:47:33.218Z,679
2023-01-23T08:48:42.294Z,736
2023-01-23T08:49:51.543Z,773
2023-01-23T08:52:09.812Z,777
2023-01-23T08:53:18.983Z,756
2023-01-23T08:54:28.163Z,734
2023-01-23T08:55:37.341Z,804
2023-01-23T08:56:46.505Z,760
2023-01-23T08:57:55.680Z,870
2023-01-23T08:59:04.854Z,890
2023-01-23T09:00:13.162Z,878
2023-01-23T09:01:22.295Z,1065
2023-01-23T09:02:31.389Z,1064
2023-01-23T09:03:40.564Z,879
2023-01-23T09:04:49.788Z,864
2023-01-23T09:05:58.916Z,850
2023-01-23T09:08:17.274Z,1044
2023-01-23T09:09:26.483Z,1286
2023-01-23T09:10:34.776Z,1359
2023-01-23T09:12:52.052Z,1044
2023-01-23T09:14:01.333Z,996
2023-01-23T09:15:10.456Z,1034
2023-01-23T09:16:19.732Z,1051
2023-01-23T09:17:28.742Z,1105
2023-01-23T09:18:36.923Z,1122
2023-01-23T09:19:45.218Z,1049
2023-01-23T09:20:54.296Z,830
2023-01-23T09:22:03.487Z,700
2023-01-23T09:23:12.635Z,575
2023-01-23T09:24:21.894Z,719
2023-01-23T09:25:30.988Z,665
2023-01-23T09:26:40.157Z,589
2023-01-23T09:27:49.343Z,652
2023-01-23T09:28:58.501Z,683
2023-01-23T09:30:07.719Z,878
2023-01-23T09:31:16.856Z,1222
2023-01-23T09:32:26.114Z,1189
2023-01-23T09:33:35.197Z,938
2023-01-23T09:34:43.385Z,974
2023-01-23T09:35:52.567Z,1061
2023-01-23T09:37:01.733Z,1191
2023-01-23T09:38:10.907Z,1245
2023-01-23T09:39:20.076Z,1229
2023-01-23T09:40:29.257Z,1211
2023-01-23T09:41:38.414Z,1333
2023-01-23T09:42:47.595Z,1477
2023-01-23T09:43:55.793Z,1475
2023-01-23T09:45:04.016Z,1236
2023-01-23T09:46:13.143Z,1495
2023-01-23T09:47:21.343Z,1868
2023-01-23T09:48:29.534Z,1840
2023-01-23T09:49:38.703Z,1996
2023-01-23T09:50:47.919Z,2103
2023-01-23T09:51:57.064Z,2691
2023-01-23T09:53:06.275Z,2922
2023-01-23T09:54:15.398Z,3325
2023-01-23T09:55:24.568Z,3599
2023-01-23T09:56:33.733Z,3710
2023-01-23T09:57:42.908Z,3552
2023-01-23T09:58:52.105Z,3634
2023-01-23T10:00:01.403Z,3641
2023-01-23T10:01:10.599Z,3692
2023-01-23T10:02:19.601Z,3719
2023-01-23T10:03:27.796Z,3584
2023-01-23T10:04:36.972Z,3549
2023-01-23T10:05:46.136Z,3767
2023-01-23T10:06:55.334Z,3643
2023-01-23T10:08:04.499Z,3731
2023-01-23T10:09:13.657Z,3661
2023-01-23T10:10:22.829Z,3381
2023-01-23T10:11:31.029Z,4157
2023-01-23T10:12:39.211Z,4214
2023-01-23T10:13:48.402Z,4319
2023-01-23T10:14:56.595Z,4474
2023-01-23T10:16:04.762Z,4705
2023-01-23T10:17:14.071Z,4644
2023-01-23T10:18:23.146Z,4440
2023-01-23T10:19:32.301Z,4032
2023-01-23T10:20:41.468Z,3810
2023-01-23T10:21:50.656Z,3945
2023-01-23T10:22:59.813Z,3763
2023-01-23T10:24:08.984Z,3315
2023-01-23T10:25:18.171Z,3483
2023-01-23T10:26:27.333Z,3933
2023-01-23T10:27:36.511Z,3697
2023-01-23T10:28:45.679Z,3037
2023-01-23T10:29:55.087Z,2838
2023-01-23T10:31:03.039Z,2853
2023-01-23T10:32:12.197Z,3205
2023-01-23T10:33:21.382Z,3011
2023-01-23T10:34:30.563Z,2710
2023-01-23T10:35:39.838Z,2558
2023-01-23T10:36:48.901Z,3234
2023-01-23T10:37:58.096Z,3360
2023-01-23T10:39:06.274Z,3940
2023-01-23T10:40:14.489Z,3066
2023-01-23T10:41:23.653Z,3382
2023-01-23T10:42:32.816Z,3659
2023-01-23T10:43:41.980Z,4571
2023-01-23T10:44:51.160Z,5423
2023-01-23T10:46:00.318Z,5232
2023-01-23T10:47:09.554Z,5256
2023-01-23T10:48:18.667Z,5002
2023-01-23T10:49:27.847Z,4861
2023-01-23T10:50:37.033Z,4678
2023-01-23T10:51:46.180Z,4232
2023-01-23T10:52:54.374Z,4221
2023-01-23T10:54:03.556Z,3936
2023-01-23T10:55:12.820Z,4217
2023-01-23T10:56:21.900Z,3721
2023-01-23T10:57:31.189Z,4127
2023-01-23T10:58:40.251Z,3739
2023-01-23T10:59:49.428Z,3575
2023-01-23T11:00:58.601Z,3113
2023-01-23T11:02:07.778Z,3400
2023-01-23T11:03:15.957Z,3249
2023-01-23T11:04:24.151Z,3356
2023-01-23T11:05:32.374Z,3806
2023-01-23T11:06:40.646Z,3463
2023-01-23T11:07:49.765Z,2745
2023-01-23T11:08:58.963Z,3129
2023-01-23T11:10:08.092Z,3641
2023-01-23T11:11:16.254Z,3225
2023-01-23T11:12:24.438Z,2915
2023-01-23T11:13:33.605Z,3082
2023-01-23T11:14:42.790Z,3218
2023-01-23T11:15:51.957Z,3303
2023-01-23T11:17:01.131Z,3007
2023-01-23T11:18:10.303Z,2379
2023-01-23T11:19:19.488Z,2993
2023-01-23T11:20:28.647Z,2915
2023-01-23T11:21:37.826Z,3421
2023-01-23T11:22:46.987Z,3886
2023-01-23T11:23:56.170Z,3411
2023-01-23T11:25:05.339Z,3252
2023-01-23T11:26:14.505Z,3475
2023-01-23T11:27:22.699Z,3143
2023-01-23T11:28:31.989Z,3285
2023-01-23T11:29:41.063Z,3054
2023-01-23T11:30:50.224Z,3480
2023-01-23T11:31:59.402Z,3569
2023-01-23T11:33:08.564Z,3663
2023-01-23T11:34:17.772Z,2081
2023-01-23T11:35:25.938Z,2814
2023-01-23T11:36:34.136Z,3253
2023-01-23T11:37:42.340Z,2912
2023-01-23T11:38:51.495Z,2961
2023-01-23T11:39:59.681Z,3258
2023-01-23T11:41:08.879Z,3712
2023-01-23T11:42:18.057Z,3572
2023-01-23T11:43:27.197Z,3087
2023-01-23T11:44:36.370Z,3196
2023-01-23T11:45:45.592Z,3052
2023-01-23T11:46:54.728Z,3044
2023-01-23T11:48:04.021Z,3157
2023-01-23T11:49:13.061Z,4007
2023-01-23T11:50:22.252Z,3547
2023-01-23T11:51:31.411Z,3790
2023-01-23T11:52:40.730Z,3975
2023-01-23T11:53:49.784Z,3485
2023-01-23T11:54:57.961Z,3509
2023-01-23T11:56:07.195Z,3708
2023-01-23T11:57:16.430Z,3375
2023-01-23T11:58:25.667Z,3323
2023-01-23T11:59:34.791Z,3084
2023-01-23T12:00:43.813Z,2834
2023-01-23T12:01:52.060Z,2574
2023-01-23T12:03:00.190Z,2889
2023-01-23T12:04:09.414Z,3055
2023-01-23T12:05:18.542Z,2579
2023-01-23T12:06:27.709Z,2742
2023-01-23T12:07:37.055Z,2848
2023-01-23T12:08:46.149Z,3130
2023-01-23T12:09:55.395Z,2668
2023-01-23T12:11:04.493Z,3290
2023-01-23T12:12:13.583Z,2972
2023-01-23T12:13:22.905Z,2812
2023-01-23T12:14:32.027Z,2318
2023-01-23T12:15:41.261Z,2386
2023-01-23T12:16:50.263Z,3043
2023-01-23T12:17:58.670Z,2885
2023-01-23T12:19:07.759Z,3311
2023-01-23T12:20:16.793Z,3120
2023-01-23T12:21:26.150Z,3638
2023-01-23T12:22:35.162Z,3748
2023-01-23T12:23:44.486Z,3111
2023-01-23T12:24:53.491Z,3053
2023-01-23T12:26:01.699Z,3300
2023-01-23T12:27:09.886Z,3239
2023-01-23T12:28:18.088Z,2689
2023-01-23T12:29:26.260Z,2588
2023-01-23T12:30:35.545Z,2278
2023-01-23T12:31:44.834Z,2392
2023-01-23T12:32:53.004Z,2623
2023-01-23T12:34:01.175Z,2553
2023-01-23T12:35:10.391Z,2127
2023-01-23T12:36:19.341Z,1944
2023-01-23T12:37:28.681Z,2063
2023-01-23T12:38:37.773Z,1925
2023-01-23T12:39:46.857Z,2034
2023-01-23T12:40:56.037Z,2692
2023-01-23T12:42:05.363Z,3020
2023-01-23T12:43:14.498Z,3148
2023-01-23T12:44:23.719Z,3093
2023-01-23T12:45:32.896Z,3094
2023-01-23T12:46:42.047Z,2940
2023-01-23T12:47:51.213Z,2959
2023-01-23T12:48:59.407Z,2936
2023-01-23T12:50:08.599Z,2752
2023-01-23T12:51:17.758Z,2709
2023-01-23T12:52:26.953Z,2641
2023-01-23T12:53:36.129Z,2506
2023-01-23T12:54:45.255Z,2507
2023-01-23T12:55:54.295Z,2404
2023-01-23T12:57:02.708Z,2324
2023-01-23T12:58:10.972Z,2326
2023-01-23T12:59:18.881Z,2170
2023-01-23T13:00:27.073Z,2129
2023-01-23T13:01:36.498Z,2212
2023-01-23T13:02:45.625Z,2325
2023-01-23T13:03:54.586Z,2391
2023-01-23T13:05:03.747Z,2337
2023-01-23T13:06:13.082Z,2344
2023-01-23T13:07:22.284Z,2417
2023-01-23T13:08:31.444Z,2366
2023-01-23T13:09:40.463Z,2334
2023-01-23T13:10:49.613Z,2418
2023-01-23T13:11:58.976Z,2512
2023-01-23T13:13:08.067Z,2641
2023-01-23T13:14:17.344Z,2654
2023-01-23T13:15:25.506Z,2545
2023-01-23T13:16:34.710Z,2496
2023-01-23T13:17:43.856Z,2396
2023-01-23T13:18:53.009Z,2319
2023-01-23T13:20:02.025Z,2268
2023-01-23T13:21:11.464Z,2419
2023-01-23T13:22:20.546Z,2635
2023-01-23T13:23:28.700Z,2628
2023-01-23T13:24:36.952Z,2722
2023-01-23T13:25:45.090Z,2669
2023-01-23T13:26:53.309Z,2617
2023-01-23T13:28:02.309Z,2541
2023-01-23T13:29:11.623Z,2465
2023-01-23T13:30:20.812Z,2474
2023-01-23T13:31:30.016Z,2514
2023-01-23T13:32:39.139Z,2514
2023-01-23T13:33:48.405Z,2483
2023-01-23T13:34:57.477Z,2420
2023-01-23T13:36:06.717Z,2375
2023-01-23T13:37:15.704Z,2312
2023-01-23T13:38:25.016Z,2234
2023-01-23T13:39:34.053Z,2246
2023-01-23T13:40:43.383Z,2253
2023-01-23T13:41:51.573Z,2276
2023-01-23T13:43:00.787Z,2263
2023-01-23T13:44:09.747Z,2203
2023-01-23T13:45:18.914Z,2143
2023-01-23T13:46:28.305Z,2162
2023-01-23T13:47:37.401Z,2128
2023-01-23T13:48:46.593Z,2058
2023-01-23T13:49:54.793Z,2042
2023-01-23T13:51:03.002Z,2038
2023-01-23T13:52:11.159Z,2067
2023-01-23T13:53:19.391Z,2062
2023-01-23T13:54:28.572Z,2036
2023-01-23T13:55:37.549Z,2063
2023-01-23T13:56:46.899Z,2030
2023-01-23T13:57:56.078Z,1973
2023-01-23T13:59:05.248Z,1956
2023-01-23T14:00:14.400Z,1941
2023-01-23T14:01:23.499Z,1951
2023-01-23T14:02:32.588Z,1948
2023-01-23T14:03:41.950Z,2018
2023-01-23T14:04:50.935Z,1991
2023-01-23T14:06:00.316Z,1961
2023-01-23T14:07:09.554Z,1993
2023-01-23T14:08:17.624Z,1985
2023-01-23T14:09:26.884Z,1957
2023-01-23T14:10:35.807Z,1883
2023-01-23T14:11:45.125Z,1881
2023-01-23T14:12:54.350Z,1831
2023-01-23T14:14:03.545Z,1793
2023-01-23T14:15:12.504Z,1833
2023-01-23T14:16:20.785Z,1844
2023-01-23T14:17:29.058Z,1783
2023-01-23T14:18:37.218Z,1707
2023-01-23T14:19:45.276Z,1661
2023-01-23T14:20:54.599Z,1652
2023-01-23T14:22:03.755Z,1657
2023-01-23T14:23:12.805Z,1664
2023-01-23T14:24:22.183Z,1673
2023-01-23T14:25:31.335Z,1591
2023-01-23T14:26:40.501Z,1603
2023-01-23T14:27:49.597Z,1595
2023-01-23T14:28:58.656Z,1575
2023-01-23T14:30:08.001Z,1555
2023-01-23T14:31:17.208Z,1536
2023-01-23T14:32:26.404Z,1499
2023-01-23T14:33:35.454Z,1467
2023-01-23T14:34:43.662Z,1465
2023-01-23T14:35:52.876Z,1448
2023-01-23T14:37:02.107Z,1395
2023-01-23T14:38:11.170Z,1384
2023-01-23T14:39:20.241Z,1342
2023-01-23T14:40:29.614Z,1294
2023-01-23T14:41:38.763Z,1278
2023-01-23T14:42:46.933Z,1247
2023-01-23T14:43:55.177Z,1295
2023-01-23T14:45:04.447Z,1316
2023-01-23T14:46:13.523Z,1312
2023-01-23T14:47:21.657Z,1297
2023-01-23T14:48:29.867Z,1350
2023-01-23T14:49:39.088Z,1365
2023-01-23T14:50:48.161Z,1322
2023-01-23T14:51:57.360Z,1285
2023-01-23T14:53:06.398Z,1245
2023-01-23T14:55:24.873Z,1225
2023-01-23T14:56:34.023Z,1187
2023-01-23T14:57:43.281Z,1187
2023-01-23T14:58:52.408Z,1186
2023-01-23T15:00:01.563Z,1189
2023-01-23T15:01:10.754Z,1177
2023-01-23T15:02:19.924Z,1152
2023-01-23T15:03:28.156Z,1084
2023-01-23T15:04:37.267Z,1060
2023-01-23T15:05:46.486Z,1008
2023-01-23T15:06:55.653Z,1005
2023-01-23T15:08:04.790Z,1011
2023-01-23T15:09:14.034Z,975
2023-01-23T15:10:23.183Z,984
2023-01-23T15:11:32.357Z,955
2023-01-23T15:12:40.547Z,885
2023-01-23T15:13:48.861Z,890
2023-01-23T15:14:56.928Z,859
2023-01-23T15:16:05.138Z,808
2023-01-23T15:17:14.105Z,767
2023-01-23T15:18:23.413Z,704
2023-01-23T15:19:32.703Z,677
2023-01-23T15:20:41.911Z,640
2023-01-23T15:21:50.966Z,608
2023-01-23T15:23:00.180Z,590
2023-01-23T15:25:18.337Z,573
2023-01-23T15:26:27.659Z,562
2023-01-23T15:27:36.729Z,539
2023-01-23T15:28:46.035Z,524
2023-01-23T15:29:55.245Z,480
2023-01-23T15:31:03.373Z,453
2023-01-23T15:32:12.664Z,457
2023-01-23T15:33:21.751Z,451
2023-01-23T15:34:30.951Z,426
2023-01-23T15:35:40.082Z,412
2023-01-23T15:36:49.212Z,436
2023-01-23T15:37:58.396Z,405
2023-01-23T15:39:07.577Z,386
2023-01-23T15:40:15.743Z,381
2023-01-23T15:41:23.970Z,358
2023-01-23T15:42:33.179Z,340
2023-01-23T15:43:41.338Z,321
2023-01-23T15:44:49.521Z,302
2023-01-23T15:45:58.508Z,288
2023-01-23T15:47:07.934Z,269
2023-01-23T15:48:16.872Z,256
2023-01-23T15:49:26.223Z,233
2023-01-23T15:50:35.373Z,223
2023-01-23T15:51:44.444Z,214
2023-01-23T15:52:53.734Z,191
2023-01-23T15:54:02.921Z,182
2023-01-23T15:55:11.933Z,169
2023-01-23T15:56:21.255Z,142
2023-01-23T15:57:30.448Z,137
2023-01-23T15:58:39.608Z,137
2023-01-23T15:59:47.780Z,141
2023-01-23T16:00:56.800Z,102
2023-01-23T16:02:06.138Z,80
2023-01-23T16:03:15.303Z,92
2023-01-23T16:04:24.556Z,79
2023-01-23T16:05:33.585Z,70
2023-01-23T16:06:42.820Z,74
2023-01-23T16:07:51.038Z,61
2023-01-23T16:08:59.233Z,56
2023-01-23T16:10:07.409Z,47
2023-01-23T16:11:15.542Z,43
2023-01-23T16:12:24.764Z,30
2023-01-23T16:13:33.906Z,29